Time;durP1;ratioP1;P1;durP2;ratioP2;P2;SDS_P1;SDS_P2;PMS_P1;PMS_P2;Temp;Humidity;BMP_temperature;BMP_pressure;BME280_temperature;BME280_humidity;BME280_pressure;Samples;Min_cycle;Max_cycle;Signal;HPM_P1;HPM_P2
2022/03/14 00:01:01;;;;;;;17.93;14.17;;;7.60;99.90;;;;;;5051446;28;20307;-77
2022/03/14 00:03:32;;;;;;;16.23;13.23;;;7.60;99.90;;;;;;5051797;28;20203;-78
2022/03/14 00:05:59;;;;;;;16.10;13.53;;;7.70;99.90;;;;;;5054655;28;20708;-77
2022/03/14 00:08:31;;;;;;;14.27;12.77;;;7.70;99.90;;;;;;5062071;28;20202;-76
2022/03/14 00:10:58;;;;;;;16.17;13.40;;;7.80;99.90;;;;;;5059874;28;20298;-77
2022/03/14 00:13:25;;;;;;;14.30;12.27;;;7.80;99.90;;;;;;5057837;28;20255;-78
2022/03/14 00:15:52;;;;;;;13.77;11.80;;;7.80;99.90;;;;;;5067075;28;20209;-77
2022/03/14 00:18:20;;;;;;;16.37;13.13;;;7.90;99.90;;;;;;5069255;28;20223;-76
2022/03/14 00:20:48;;;;;;;17.37;13.63;;;7.90;99.90;;;;;;5063637;28;20191;-77
2022/03/14 00:23:18;;;;;;;15.87;13.63;;;7.80;99.90;;;;;;5068861;28;20659;-77
2022/03/14 00:25:47;;;;;;;15.20;13.57;;;7.80;99.90;;;;;;5071860;28;20681;-77
2022/03/14 00:28:14;;;;;;;17.23;13.70;;;7.70;99.90;;;;;;5061126;28;20202;-77
2022/03/14 00:30:41;;;;;;;15.10;13.03;;;7.70;99.90;;;;;;5059000;28;20310;-77
2022/03/14 00:33:08;;;;;;;15.20;13.03;;;7.70;99.90;;;;;;5057219;28;20195;-77
2022/03/14 00:35:35;;;;;;;14.20;11.77;;;7.70;99.90;;;;;;5066598;28;20592;-77
2022/03/14 00:38:03;;;;;;;13.10;11.80;;;7.80;99.90;;;;;;5056644;28;20219;-77
2022/03/14 00:40:30;;;;;;;14.77;12.83;;;7.80;99.90;;;;;;5058180;28;20199;-77
2022/03/14 00:42:57;;;;;;;12.70;11.10;;;7.80;99.90;;;;;;5063350;28;20198;-77
2022/03/14 00:45:24;;;;;;;14.10;12.20;;;7.80;99.90;;;;;;5056747;28;20295;-77
2022/03/14 00:47:51;;;;;;;15.47;12.70;;;7.80;99.90;;;;;;5057651;28;20597;-77
2022/03/14 00:50:18;;;;;;;14.47;12.13;;;7.90;99.90;;;;;;5062435;28;20208;-77
2022/03/14 00:52:45;;;;;;;14.57;12.53;;;7.90;99.90;;;;;;5055584;28;20225;-76
2022/03/14 00:55:13;;;;;;;16.63;13.47;;;7.90;99.90;;;;;;5064352;28;20208;-77
2022/03/14 00:57:40;;;;;;;16.53;12.80;;;8.00;99.90;;;;;;5068475;28;20222;-78
2022/03/14 01:00:07;;;;;;;14.97;12.97;;;8.00;99.90;;;;;;5061127;28;20202;-77
2022/03/14 01:02:35;;;;;;;15.73;13.20;;;8.00;99.90;;;;;;5066777;28;20708;-77
2022/03/14 01:05:02;;;;;;;15.47;12.93;;;7.90;99.90;;;;;;5054629;28;20579;-77
2022/03/14 01:07:29;;;;;;;17.53;14.33;;;8.00;99.90;;;;;;5053182;28;20199;-76
2022/03/14 01:09:55;;;;;;;16.23;13.93;;;8.00;99.90;;;;;;5061038;28;20225;-77
2022/03/14 01:12:23;;;;;;;19.97;15.23;;;8.10;99.90;;;;;;5057970;28;20264;-77
2022/03/14 01:14:50;;;;;;;18.90;15.47;;;8.10;99.90;;;;;;5061216;28;20195;-78
2022/03/14 01:17:17;;;;;;;18.90;15.13;;;8.20;99.90;;;;;;5075662;22;20236;-77
2022/03/14 01:19:44;;;;;;;19.70;14.97;;;8.30;99.90;;;;;;5036461;28;20209;-76
2022/03/14 01:22:11;;;;;;;22.93;13.53;;;8.40;99.90;;;;;;5051824;28;20201;-77
2022/03/14 01:24:39;;;;;;;25.93;14.13;;;8.60;99.90;;;;;;5043907;28;20655;-76
2022/03/14 01:27:06;;;;;;;19.67;13.37;;;8.70;99.90;;;;;;5051919;28;20247;-77
2022/03/14 01:29:36;;;;;;;20.57;13.97;;;8.80;99.90;;;;;;5029736;28;20200;-76
2022/03/14 01:32:03;;;;;;;20.23;12.67;;;8.80;99.90;;;;;;5049436;28;20217;-77
2022/03/14 01:34:30;;;;;;;22.27;15.10;;;8.90;99.90;;;;;;5049921;28;20196;-76
2022/03/14 01:36:57;;;;;;;20.97;17.43;;;9.00;99.90;;;;;;5051901;28;20244;-76
2022/03/14 01:39:24;;;;;;;24.20;18.60;;;9.10;99.90;;;;;;5052993;28;20225;-76
2022/03/14 01:41:51;;;;;;;24.47;18.07;;;9.10;99.90;;;;;;5043466;28;20229;-75
2022/03/14 01:44:19;;;;;;;19.37;17.07;;;9.20;99.90;;;;;;5053126;28;20277;-75
2022/03/14 01:46:47;;;;;;;26.00;21.50;;;9.20;99.90;;;;;;5030996;28;20314;-75
2022/03/14 01:49:14;;;;;;;21.60;16.67;;;9.30;99.90;;;;;;5044679;28;20203;-75
2022/03/14 01:51:41;;;;;;;21.07;16.23;;;9.30;99.90;;;;;;5052764;28;20241;-74
2022/03/14 01:54:09;;;;;;;23.17;19.53;;;9.30;99.90;;;;;;5052932;28;20297;-75
2022/03/14 01:56:38;;;;;;;20.77;18.03;;;9.30;99.90;;;;;;5045061;28;20214;-75
2022/03/14 01:59:05;;;;;;;24.47;19.47;;;9.30;99.90;;;;;;5041286;28;20199;-75
2022/03/14 02:01:32;;;;;;;20.60;17.50;;;9.30;99.90;;;;;;5052640;28;20194;-75
2022/03/14 02:04:02;;;;;;;23.77;18.90;;;9.30;99.90;;;;;;5042421;28;20203;-75
2022/03/14 02:06:29;;;;;;;24.07;20.27;;;9.30;99.90;;;;;;5044191;28;20284;-74
2022/03/14 02:08:56;;;;;;;22.43;16.47;;;9.30;99.90;;;;;;5052129;28;20195;-74
2022/03/14 02:11:23;;;;;;;19.03;14.97;;;9.30;99.90;;;;;;5052095;28;20218;-75
2022/03/14 02:13:50;;;;;;;18.97;13.87;;;9.30;99.90;;;;;;5052560;28;20219;-75
2022/03/14 02:16:17;;;;;;;16.77;12.43;;;9.30;99.90;;;;;;5052134;28;20226;-75
2022/03/14 02:18:44;;;;;;;18.10;13.60;;;9.30;99.90;;;;;;5051609;28;20191;-75
2022/03/14 02:21:13;;;;;;;15.77;12.73;;;9.30;99.90;;;;;;5041139;28;20576;-74
2022/03/14 02:23:40;;;;;;;15.03;11.30;;;9.30;99.90;;;;;;5052354;28;20269;-74
2022/03/14 02:26:07;;;;;;;15.80;13.83;;;9.20;99.90;;;;;;5052000;28;20302;-75
2022/03/14 02:28:35;;;;;;;15.53;12.93;;;9.10;99.90;;;;;;5051489;28;20538;-75
2022/03/14 02:31:03;;;;;;;12.53;11.23;;;9.00;99.90;;;;;;5051436;28;20253;-74
2022/03/14 02:33:30;;;;;;;10.97;9.87;;;9.00;99.90;;;;;;5044252;28;20257;-74
2022/03/14 02:35:57;;;;;;;11.57;10.37;;;8.90;99.90;;;;;;5034278;28;20305;-73
2022/03/14 02:38:25;;;;;;;11.03;9.87;;;8.80;99.90;;;;;;5051112;28;20199;-74
2022/03/14 02:40:52;;;;;;;9.93;7.13;;;8.80;99.90;;;;;;5056810;28;20203;-75
2022/03/14 02:43:24;;;;;;;8.50;7.50;;;8.70;99.90;;;;;;5052870;28;20265;-74
2022/03/14 02:45:52;;;;;;;9.63;8.63;;;8.70;99.90;;;;;;5030418;28;20612;-74
2022/03/14 02:48:23;;;;;;;9.00;8.23;;;8.60;99.90;;;;;;5052456;28;20675;-74
2022/03/14 02:50:53;;;;;;;8.27;7.47;;;8.60;99.90;;;;;;5053034;28;20678;-74
2022/03/14 02:53:20;;;;;;;7.37;6.63;;;8.50;99.90;;;;;;5035020;28;20218;-74
2022/03/14 02:55:49;;;;;;;8.37;6.83;;;8.50;99.90;;;;;;5034832;28;20712;-74
2022/03/14 02:58:16;;;;;;;7.33;6.80;;;8.40;99.90;;;;;;5051564;28;20221;-75
2022/03/14 03:00:43;;;;;;;6.10;5.70;;;8.40;99.90;;;;;;5052214;28;20198;-74
2022/03/14 03:03:11;;;;;;;6.30;5.87;;;8.30;99.90;;;;;;5034565;28;20195;-74
2022/03/14 03:05:43;;;;;;;6.13;5.73;;;8.30;99.90;;;;;;5033625;28;20695;-74
2022/03/14 03:08:10;;;;;;;6.20;5.80;;;8.30;99.90;;;;;;5055300;28;20210;-74
2022/03/14 03:10:38;;;;;;;6.27;5.87;;;8.20;99.90;;;;;;5052357;28;20199;-76
2022/03/14 03:13:06;;;;;;;5.80;5.50;;;8.20;99.90;;;;;;5051908;28;20218;-75
2022/03/14 03:15:37;;;;;;;5.90;5.50;;;8.30;99.90;;;;;;5033648;28;20207;-74
2022/03/14 03:18:04;;;;;;;5.50;5.20;;;8.20;99.90;;;;;;5050733;28;20197;-74
2022/03/14 03:20:31;;;;;;;5.63;5.33;;;8.20;99.90;;;;;;5033583;28;20268;-74
2022/03/14 03:22:58;;;;;;;5.40;5.10;;;8.20;99.90;;;;;;5055510;28;20619;-74
2022/03/14 03:25:24;;;;;;;5.70;5.40;;;8.10;99.90;;;;;;5055651;28;20203;-74
2022/03/14 03:27:51;;;;;;;5.50;5.20;;;8.10;99.90;;;;;;5029781;28;20681;-75
2022/03/14 03:30:19;;;;;;;5.67;5.37;;;8.10;99.90;;;;;;5058439;28;20253;-75
2022/03/14 03:32:46;;;;;;;5.80;5.50;;;8.10;99.90;;;;;;5058111;28;20237;-76
2022/03/14 03:35:13;;;;;;;6.23;5.83;;;8.10;99.90;;;;;;5052028;28;20212;-74
2022/03/14 03:37:40;;;;;;;5.57;5.17;;;8.10;99.90;;;;;;5051594;28;20250;-74
2022/03/14 03:40:08;;;;;;;5.40;5.10;;;8.10;99.90;;;;;;5052551;28;20194;-74
2022/03/14 03:42:35;;;;;;;3.03;2.83;;;8.10;99.90;;;;;;5051895;28;20248;-78
2022/03/14 03:45:01;;;;;;;5.47;5.17;;;8.10;99.90;;;;;;5043331;28;20199;-77
2022/03/14 03:47:30;;;;;;;2.50;2.13;;;8.10;99.90;;;;;;5026151;28;20223;-75
2022/03/14 03:49:57;;;;;;;6.00;5.60;;;8.00;99.90;;;;;;5032647;28;20686;-75
2022/03/14 03:52:24;;;;;;;2.87;2.67;;;8.00;99.90;;;;;;5047021;28;20225;-75
2022/03/14 03:54:51;;;;;;;1.83;1.73;;;8.00;99.90;;;;;;5056293;28;20257;-74
2022/03/14 03:57:18;;;;;;;5.57;5.27;;;8.00;99.90;;;;;;5050324;28;20222;-74
2022/03/14 03:59:44;;;;;;;4.63;4.33;;;7.90;99.90;;;;;;5052791;28;20248;-75
2022/03/14 04:02:11;;;;;;;2.73;2.63;;;7.90;99.90;;;;;;5039464;28;20698;-74
2022/03/14 04:04:40;;;;;;;2.10;2.00;;;7.90;99.90;;;;;;5055766;28;20195;-76
2022/03/14 04:07:09;;;;;;;4.53;4.27;;;7.90;99.90;;;;;;5047345;28;20229;-75
2022/03/14 04:09:36;;;;;;;1.93;1.83;;;7.90;99.90;;;;;;5040494;28;20202;-76
2022/03/14 04:12:03;;;;;;;3.07;2.97;;;7.80;99.90;;;;;;5055974;28;20264;-76
2022/03/14 04:14:30;;;;;;;6.43;6.03;;;7.90;99.90;;;;;;5052781;28;20213;-75
2022/03/14 04:16:58;;;;;;;6.20;5.80;;;7.80;99.90;;;;;;5054576;28;20222;-75
2022/03/14 04:19:25;;;;;;;5.97;5.67;;;7.80;99.90;;;;;;5052763;28;20204;-76
2022/03/14 04:21:53;;;;;;;5.90;5.60;;;7.80;99.90;;;;;;5049572;28;20195;-75
2022/03/14 04:24:21;;;;;;;6.20;5.90;;;7.80;99.90;;;;;;5055401;28;20668;-75
2022/03/14 04:26:48;;;;;;;6.30;5.90;;;7.80;99.90;;;;;;5054768;28;20211;-77
2022/03/14 04:29:16;;;;;;;5.80;5.50;;;7.80;99.90;;;;;;5039315;28;20206;-75
2022/03/14 04:31:43;;;;;;;5.90;5.50;;;7.80;99.90;;;;;;5054523;28;20246;-75
2022/03/14 04:34:10;;;;;;;5.93;5.63;;;7.80;99.90;;;;;;5059283;28;20214;-75
2022/03/14 04:36:37;;;;;;;6.10;5.80;;;7.80;99.90;;;;;;5036130;28;20216;-75
2022/03/14 04:39:05;;;;;;;6.03;5.73;;;7.80;99.90;;;;;;5036870;28;20217;-75
2022/03/14 04:41:35;;;;;;;5.80;5.50;;;7.80;99.90;;;;;;5056851;28;20201;-75
2022/03/14 04:44:02;;;;;;;4.03;3.83;;;7.80;99.90;;;;;;5036978;28;20210;-75
2022/03/14 04:46:29;;;;;;;3.30;3.10;;;7.70;99.90;;;;;;5050078;28;20253;-75
2022/03/14 04:48:56;;;;;;;5.60;5.30;;;7.70;99.90;;;;;;5055544;28;20191;-75
2022/03/14 04:51:23;;;;;;;6.67;6.27;;;7.70;99.90;;;;;;5055048;28;20199;-75
2022/03/14 04:53:50;;;;;;;6.90;6.50;;;7.70;99.90;;;;;;5057250;28;20465;-75
2022/03/14 04:56:18;;;;;;;5.70;5.40;;;7.70;99.90;;;;;;5053637;28;20234;-75
2022/03/14 04:58:45;;;;;;;6.00;5.70;;;7.70;99.90;;;;;;5055071;28;20637;-75
2022/03/14 05:01:12;;;;;;;6.27;5.97;;;7.70;99.90;;;;;;5054983;28;20190;-74
2022/03/14 05:03:39;;;;;;;5.60;5.30;;;7.70;99.90;;;;;;5054293;28;20758;-75
2022/03/14 05:06:06;;;;;;;7.00;6.60;;;7.80;99.90;;;;;;5054776;28;20229;-76
2022/03/14 05:08:32;;;;;;;6.07;5.77;;;7.80;99.90;;;;;;5031288;28;20198;-75
2022/03/14 05:10:59;;;;;;;6.53;6.13;;;7.80;99.90;;;;;;5055027;28;20661;-75
2022/03/14 05:13:27;;;;;;;8.13;7.47;;;7.80;99.90;;;;;;5036947;28;20226;-74
2022/03/14 05:15:54;;;;;;;7.60;7.00;;;7.80;99.90;;;;;;5054894;28;20237;-74
2022/03/14 05:18:21;;;;;;;7.20;6.70;;;7.80;99.90;;;;;;5054181;28;20214;-74
2022/03/14 05:20:48;;;;;;;6.67;6.27;;;7.70;99.90;;;;;;5026175;28;20222;-76
2022/03/14 05:23:15;;;;;;;6.50;6.20;;;7.70;99.90;;;;;;5034988;28;20198;-75
2022/03/14 05:25:41;;;;;;;6.57;6.17;;;7.70;99.90;;;;;;5029635;28;20221;-75
2022/03/14 05:28:09;;;;;;;6.70;6.30;;;7.70;99.90;;;;;;5054098;28;20202;-75
2022/03/14 05:30:37;;;;;;;6.73;6.23;;;7.70;99.90;;;;;;5036426;28;20222;-75
2022/03/14 05:33:04;;;;;;;6.70;6.30;;;7.70;99.90;;;;;;5054248;28;20218;-75
2022/03/14 05:35:31;;;;;;;6.87;6.47;;;7.70;99.90;;;;;;5054347;28;20202;-75
2022/03/14 05:37:58;;;;;;;6.50;6.10;;;7.70;99.90;;;;;;5061224;28;20210;-75
2022/03/14 05:40:24;;;;;;;6.17;5.83;;;7.70;99.90;;;;;;5036334;28;20202;-76
2022/03/14 05:42:51;;;;;;;6.27;5.90;;;7.70;99.90;;;;;;5054392;28;20195;-75
2022/03/14 05:45:20;;;;;;;5.90;5.60;;;7.70;99.90;;;;;;5050269;28;20215;-75
2022/03/14 05:47:49;;;;;;;5.93;5.63;;;7.70;99.90;;;;;;5053649;28;20196;-76
2022/03/14 05:50:16;;;;;;;6.13;5.83;;;7.70;99.90;;;;;;5035512;28;20206;-75
2022/03/14 05:52:43;;;;;;;6.10;5.80;;;7.70;99.90;;;;;;5035236;28;20226;-75
2022/03/14 05:55:11;;;;;;;6.77;6.13;;;7.80;99.90;;;;;;5053017;28;20698;-75
2022/03/14 05:57:38;;;;;;;6.20;5.80;;;7.80;99.90;;;;;;5041214;28;20285;-76
2022/03/14 06:00:08;;;;;;;6.00;5.70;;;7.80;99.90;;;;;;5049155;28;20199;-75
2022/03/14 06:02:46;;;;;;;6.00;5.60;;;7.70;99.90;;;;;;5052887;28;20202;-75
2022/03/14 06:05:14;;;;;;;6.20;5.80;;;7.70;99.90;;;;;;5034768;28;20610;-75
2022/03/14 06:07:41;;;;;;;6.10;5.80;;;7.70;99.90;;;;;;5031713;28;20622;-75
2022/03/14 06:10:09;;;;;;;6.40;6.10;;;7.70;99.90;;;;;;5034438;28;20249;-75
2022/03/14 06:12:36;;;;;;;6.00;5.70;;;7.60;99.90;;;;;;5052305;28;20695;-75
2022/03/14 06:15:10;;;;;;;6.03;5.73;;;7.60;99.90;;;;;;5033672;28;20250;-75
2022/03/14 06:17:37;;;;;;;6.37;6.07;;;7.70;99.90;;;;;;5051859;28;20707;-75
2022/03/14 06:20:05;;;;;;;5.87;5.57;;;7.70;99.90;;;;;;5052009;28;20210;-75
2022/03/14 06:22:38;;;;;;;6.00;5.70;;;7.70;99.90;;;;;;5048413;28;20198;-76
2022/03/14 06:25:06;;;;;;;6.07;5.77;;;7.70;99.90;;;;;;5055458;28;20210;-75
2022/03/14 06:27:33;;;;;;;5.93;5.63;;;7.80;99.90;;;;;;5033429;28;20218;-75
2022/03/14 06:30:00;;;;;;;5.90;5.60;;;7.80;99.90;;;;;;5052009;28;20209;-75
2022/03/14 06:32:26;;;;;;;5.70;5.40;;;7.90;99.90;;;;;;5034147;28;20608;-75
2022/03/14 06:34:53;;;;;;;4.73;4.43;;;7.90;99.90;;;;;;5052009;28;20216;-75
2022/03/14 06:37:21;;;;;;;5.03;4.83;;;7.90;99.90;;;;;;5033216;28;20226;-75
2022/03/14 06:39:49;;;;;;;3.30;3.20;;;7.90;99.90;;;;;;5048498;28;20199;-75
2022/03/14 06:42:16;;;;;;;2.20;2.10;;;8.00;99.90;;;;;;5050095;28;20203;-75
2022/03/14 06:44:44;;;;;;;2.00;2.00;;;8.00;99.90;;;;;;5052115;28;20230;-75
2022/03/14 06:47:13;;;;;;;2.00;1.90;;;8.10;99.90;;;;;;5050691;28;20226;-76
2022/03/14 06:49:42;;;;;;;1.90;1.80;;;8.20;99.90;;;;;;5051802;28;20226;-75
2022/03/14 06:52:09;;;;;;;2.00;1.90;;;8.20;99.90;;;;;;5051451;28;20210;-75
2022/03/14 06:54:38;;;;;;;1.70;1.60;;;8.20;99.90;;;;;;5051472;28;20218;-75
2022/03/14 06:57:07;;;;;;;1.70;1.60;;;8.30;99.90;;;;;;5048877;28;20270;-75
2022/03/14 06:59:34;;;;;;;1.50;1.50;;;8.30;99.90;;;;;;5051272;28;20195;-75
2022/03/14 07:02:01;;;;;;;1.83;1.73;;;8.40;99.90;;;;;;5051362;28;20195;-74
2022/03/14 07:04:28;;;;;;;1.50;1.50;;;8.40;99.90;;;;;;5033714;28;20187;-75
2022/03/14 07:06:55;;;;;;;3.43;3.23;;;8.50;99.90;;;;;;5027793;28;20700;-74
2022/03/14 07:09:22;;;;;;;3.30;3.20;;;8.50;99.90;;;;;;5033281;28;20206;-75
2022/03/14 07:11:51;;;;;;;2.27;2.10;;;8.60;99.90;;;;;;5051518;28;20564;-75
2022/03/14 07:14:20;;;;;;;1.80;1.70;;;8.80;99.90;;;;;;5051202;28;20222;-75
2022/03/14 07:16:47;;;;;;;1.70;1.60;;;8.90;99.90;;;;;;5071668;22;20222;-76
2022/03/14 07:19:14;;;;;;;1.70;1.60;;;9.00;99.90;;;;;;5074852;28;20705;-77
2022/03/14 07:21:41;;;;;;;1.67;1.57;;;9.10;99.90;;;;;;5073201;28;20213;-78
2022/03/14 07:24:08;;;;;;;1.80;1.70;;;9.20;99.90;;;;;;5077848;28;20563;-78
2022/03/14 07:26:36;;;;;;;1.60;1.60;;;9.30;99.90;;;;;;5072213;28;20288;-79
2022/03/14 07:29:03;;;;;;;1.93;1.83;;;9.40;99.90;;;;;;5077723;28;20728;-78
2022/03/14 07:31:31;;;;;;;1.80;1.70;;;9.50;99.90;;;;;;5068577;28;20224;-78
2022/03/14 07:33:58;;;;;;;2.60;2.50;;;9.50;99.90;;;;;;5058936;28;20237;-78
2022/03/14 07:36:25;;;;;;;3.03;2.83;;;9.50;99.90;;;;;;5080244;28;20213;-77
2022/03/14 07:38:52;;;;;;;2.03;1.90;;;9.60;99.90;;;;;;5077981;28;20814;-77
2022/03/14 07:41:19;;;;;;;3.53;3.30;;;9.70;99.90;;;;;;5063140;28;20217;-78
2022/03/14 07:43:45;;;;;;;2.40;2.30;;;10.00;99.90;;;;;;5081196;28;20190;-78
2022/03/14 07:46:12;;;;;;;2.37;2.27;;;10.30;99.90;;;;;;5082614;28;20217;-78
2022/03/14 07:48:40;;;;;;;2.90;2.43;;;10.40;99.90;;;;;;5074252;28;20193;-77
2022/03/14 07:51:08;;;;;;;2.80;2.60;;;10.50;99.90;;;;;;5055897;28;20264;-77
2022/03/14 07:53:35;;;;;;;3.90;3.40;;;10.60;99.90;;;;;;5084107;28;20836;-77
2022/03/14 07:56:04;;;;;;;2.63;2.53;;;10.90;99.90;;;;;;5057902;28;20617;-78
2022/03/14 07:58:31;;;;;;;2.27;2.17;;;11.70;99.90;;;;;;5079914;28;20275;-78
2022/03/14 08:00:59;;;;;;;1.93;1.83;;;12.40;99.90;;;;;;5080884;28;20541;-77
2022/03/14 08:03:26;;;;;;;1.90;1.80;;;13.00;99.90;;;;;;5062728;28;20189;-77
2022/03/14 08:06:00;;;;;;;1.80;1.70;;;13.00;99.90;;;;;;5076992;28;20178;-78
2022/03/14 08:08:29;;;;;;;1.80;1.70;;;12.90;99.90;;;;;;5054241;28;20225;-77
2022/03/14 08:10:55;;;;;;;2.50;2.40;;;12.70;99.90;;;;;;5081020;28;20183;-77
2022/03/14 08:13:22;;;;;;;1.60;1.60;;;12.60;99.90;;;;;;5076258;28;20236;-77
2022/03/14 08:15:49;;;;;;;2.50;2.30;;;12.80;99.90;;;;;;5077310;28;20206;-78
2022/03/14 08:18:16;;;;;;;3.47;2.50;;;13.30;99.90;;;;;;5059661;28;20234;-76
2022/03/14 08:20:43;;;;;;;2.40;2.00;;;13.80;99.90;;;;;;5078289;28;20199;-77
2022/03/14 08:23:12;;;;;;;5.53;5.23;;;14.30;99.90;;;;;;5063798;28;20582;-77
2022/03/14 08:25:38;;;;;;;6.60;6.23;;;14.80;99.90;;;;;;5083570;28;20190;-76
2022/03/14 08:28:06;;;;;;;6.30;5.80;;;15.00;99.90;;;;;;5080026;28;20218;-77
2022/03/14 08:30:33;;;;;;;6.10;5.80;;;14.50;99.90;;;;;;5077186;28;20332;-77
2022/03/14 08:33:00;;;;;;;6.00;5.60;;;14.20;99.90;;;;;;5076162;28;20195;-77
2022/03/14 08:35:28;;;;;;;6.00;5.70;;;13.90;99.90;;;;;;5081344;28;20195;-79
2022/03/14 08:37:55;;;;;;;6.10;5.70;;;13.70;99.90;;;;;;5077932;28;20260;-78
2022/03/14 08:40:25;;;;;;;6.10;5.70;;;13.60;99.90;;;;;;5084790;28;20622;-78
2022/03/14 08:42:53;;;;;;;6.20;5.80;;;13.60;99.90;;;;;;5084552;28;20252;-77
2022/03/14 08:45:22;;;;;;;6.00;5.70;;;13.70;99.90;;;;;;5066944;28;20565;-77
2022/03/14 08:47:49;;;;;;;5.93;5.57;;;13.70;99.90;;;;;;5076891;28;20699;-77
2022/03/14 08:50:16;;;;;;;6.53;6.03;;;13.80;99.90;;;;;;5083913;28;20720;-78
2022/03/14 08:52:45;;;;;;;6.37;5.90;;;14.10;99.90;;;;;;5063718;28;20198;-78
2022/03/14 08:55:12;;;;;;;6.10;5.80;;;14.10;99.90;;;;;;5079502;28;20241;-77
2022/03/14 08:57:41;;;;;;;6.77;6.27;;;13.90;99.90;;;;;;5081975;28;20217;-77
2022/03/14 09:00:10;;;;;;;6.50;6.10;;;13.80;99.90;;;;;;5062639;28;20197;-78
2022/03/14 09:02:40;;;;;;;6.37;5.77;;;13.70;99.90;;;;;;5081758;28;20180;-77
2022/03/14 09:05:08;;;;;;;6.10;5.60;;;13.60;99.90;;;;;;5084265;28;20201;-77
2022/03/14 09:07:35;;;;;;;6.37;5.77;;;13.30;99.90;;;;;;5080294;28;20211;-77
2022/03/14 09:10:04;;;;;;;6.30;5.90;;;13.00;99.90;;;;;;5084245;28;20197;-77
2022/03/14 09:12:32;;;;;;;6.37;6.00;;;12.80;99.90;;;;;;5076258;28;20554;-77
2022/03/14 09:15:01;;;;;;;6.50;6.10;;;12.60;99.90;;;;;;5083762;28;20209;-77
2022/03/14 09:17:32;;;;;;;6.47;6.00;;;12.40;99.90;;;;;;5078208;28;20733;-77
2022/03/14 09:20:00;;;;;;;6.03;5.70;;;12.50;99.90;;;;;;5079184;28;20222;-77
2022/03/14 09:22:27;;;;;;;2.70;1.60;;;12.80;99.90;;;;;;5083187;28;20667;-77
2022/03/14 09:24:55;;;;;;;2.63;2.03;;;13.10;99.90;;;;;;5079551;28;20191;-77
2022/03/14 09:27:23;;;;;;;1.50;1.40;;;13.50;99.90;;;;;;5066753;28;20691;-77
2022/03/14 09:29:50;;;;;;;3.40;3.10;;;13.90;99.90;;;;;;5083970;28;20199;-77
2022/03/14 09:32:19;;;;;;;5.77;5.43;;;14.20;99.90;;;;;;5081337;28;20634;-78
2022/03/14 09:34:45;;;;;;;6.17;5.77;;;14.40;99.90;;;;;;5083411;28;20195;-77
2022/03/14 09:37:12;;;;;;;6.00;5.70;;;14.70;99.90;;;;;;5083035;28;20273;-77
2022/03/14 09:39:42;;;;;;;6.00;5.60;;;15.10;99.90;;;;;;5081007;28;20568;-77
2022/03/14 09:42:12;;;;;;;5.87;5.47;;;15.30;99.90;;;;;;5078886;28;20205;-78
2022/03/14 09:44:42;;;;;;;5.93;5.53;;;15.50;99.90;;;;;;5070390;28;20201;-77
2022/03/14 09:47:10;;;;;;;5.93;5.57;;;15.40;99.90;;;;;;5061672;28;20719;-77
2022/03/14 09:49:40;;;;;;;6.00;5.60;;;15.00;99.90;;;;;;5063820;28;20222;-76
2022/03/14 09:52:09;;;;;;;6.30;5.90;;;14.90;99.90;;;;;;5084159;28;20194;-77
2022/03/14 09:54:37;;;;;;;6.30;5.90;;;14.80;99.90;;;;;;5064383;28;20226;-77
2022/03/14 09:57:04;;;;;;;5.80;5.40;;;14.50;99.90;;;;;;5083003;28;20215;-78
2022/03/14 09:59:32;;;;;;;5.87;5.57;;;14.30;99.90;;;;;;5085434;28;20203;-77
2022/03/14 10:01:59;;;;;;;7.23;5.73;;;14.30;99.90;;;;;;5079451;28;20194;-78
2022/03/14 10:04:25;;;;;;;6.50;5.90;;;14.10;99.90;;;;;;5076641;28;20606;-77
2022/03/14 10:06:54;;;;;;;6.43;5.90;;;14.00;99.90;;;;;;5079466;28;20210;-77
2022/03/14 10:09:21;;;;;;;6.20;5.70;;;13.90;99.90;;;;;;5085709;28;20246;-77
2022/03/14 10:11:48;;;;;;;5.97;5.47;;;14.20;99.90;;;;;;5095582;28;20186;-77
2022/03/14 10:14:17;;;;;;;5.70;5.30;;;14.50;99.90;;;;;;5086311;28;20210;-77
2022/03/14 10:16:44;;;;;;;5.60;5.20;;;14.60;99.90;;;;;;5065020;28;20224;-77
2022/03/14 10:19:13;;;;;;;6.10;5.70;;;14.60;99.90;;;;;;5066100;28;20240;-78
2022/03/14 10:21:42;;;;;;;6.10;5.70;;;14.60;99.90;;;;;;5060972;28;20290;-79
2022/03/14 10:24:12;;;;;;;5.97;5.43;;;14.70;99.90;;;;;;5083838;28;20196;-77
2022/03/14 10:26:42;;;;;;;6.00;5.50;;;14.50;99.90;;;;;;5082856;28;20214;-78
2022/03/14 10:29:11;;;;;;;6.50;6.00;;;14.40;99.90;;;;;;5059038;28;20210;-78
2022/03/14 10:31:40;;;;;;;5.90;5.50;;;14.30;99.90;;;;;;5083129;28;20245;-78
2022/03/14 10:34:10;;;;;;;6.03;5.53;;;14.30;99.90;;;;;;5067929;28;20228;-78
2022/03/14 10:36:46;;;;;;;6.20;5.70;;;14.40;99.90;;;;;;5076040;28;20215;-78
2022/03/14 10:39:19;;;;;;;5.93;5.57;;;14.20;99.90;;;;;;5084371;28;20200;-78
2022/03/14 10:41:48;;;;;;;5.73;5.43;;;14.20;99.90;;;;;;5062219;28;20193;-78
2022/03/14 10:44:25;;;;;;;5.83;5.43;;;14.10;99.90;;;;;;5082893;28;20204;-78
2022/03/14 10:46:54;;;;;;;6.33;5.80;;;14.10;99.90;;;;;;5081592;28;20202;-78
2022/03/14 10:49:27;;;;;;;6.10;5.70;;;13.90;99.90;;;;;;5065394;28;20206;-78
2022/03/14 10:51:56;;;;;;;5.70;5.30;;;13.90;99.90;;;;;;5082595;28;20190;-78
2022/03/14 10:54:25;;;;;;;5.87;5.43;;;13.80;99.90;;;;;;5083836;28;20231;-77
2022/03/14 10:57:03;;;;;;;6.27;5.87;;;13.90;99.90;;;;;;5084801;28;20219;-78
2022/03/14 10:59:37;;;;;;;5.63;5.33;;;13.90;99.90;;;;;;5076263;28;20237;-78
2022/03/14 11:02:06;;;;;;;6.30;5.80;;;13.80;99.90;;;;;;5078311;28;20698;-78
2022/03/14 11:04:41;;;;;;;6.03;5.63;;;13.80;99.90;;;;;;5082085;28;20246;-78
2022/03/14 11:07:08;;;;;;;5.73;5.33;;;13.80;99.90;;;;;;5061039;28;20228;-78
2022/03/14 11:09:40;;;;;;;6.03;5.63;;;13.90;99.90;;;;;;5082448;28;20267;-78
2022/03/14 11:12:10;;;;;;;5.90;5.40;;;13.90;99.90;;;;;;5065335;28;20217;-78
2022/03/14 11:14:39;;;;;;;5.37;4.97;;;13.80;99.90;;;;;;5082168;28;20478;-79
2022/03/14 11:17:14;;;;;;;5.23;4.93;;;13.80;99.90;;;;;;5078026;28;20228;-79
2022/03/14 11:19:42;;;;;;;6.00;5.60;;;13.80;99.90;;;;;;5081958;28;20201;-78
2022/03/14 11:22:14;;;;;;;5.83;5.43;;;13.80;99.90;;;;;;5082798;28;20639;-78
2022/03/14 11:24:45;;;;;;;6.50;6.00;;;13.90;99.90;;;;;;5079085;28;20209;-79
2022/03/14 11:27:18;;;;;;;5.97;5.50;;;13.90;99.90;;;;;;5077456;28;20213;-78
2022/03/14 11:29:46;;;;;;;6.00;5.50;;;13.90;99.90;;;;;;5066963;28;20208;-78
2022/03/14 11:32:14;;;;;;;5.90;5.40;;;13.90;99.90;;;;;;5067082;28;20199;-78
2022/03/14 11:34:41;;;;;;;5.60;5.20;;;13.90;99.90;;;;;;5076746;28;20222;-77
2022/03/14 11:37:10;;;;;;;6.13;5.60;;;13.70;99.90;;;;;;5082698;28;20226;-79
2022/03/14 11:39:37;;;;;;;6.50;6.00;;;13.60;99.90;;;;;;5080862;28;20194;-78
2022/03/14 11:42:07;;;;;;;5.93;5.60;;;13.60;99.90;;;;;;5078162;28;20206;-77
2022/03/14 11:44:35;;;;;;;6.60;6.00;;;13.60;99.90;;;;;;5081692;28;20225;-77
2022/03/14 11:47:03;;;;;;;5.60;5.20;;;13.60;99.90;;;;;;5074411;28;20229;-77
2022/03/14 11:49:31;;;;;;;5.60;5.20;;;13.60;99.90;;;;;;5076089;28;20236;-78
2022/03/14 11:52:10;;;;;;;5.83;5.47;;;13.70;99.90;;;;;;5063990;28;20202;-78
2022/03/14 11:54:40;;;;;;;5.90;5.40;;;13.70;99.90;;;;;;5075398;28;20213;-78
2022/03/14 11:57:09;;;;;;;5.63;5.23;;;13.70;99.90;;;;;;5076670;28;20214;-78
2022/03/14 11:59:37;;;;;;;5.53;5.20;;;13.70;99.90;;;;;;5081493;28;20679;-77
2022/03/14 12:02:08;;;;;;;5.73;5.23;;;13.70;99.90;;;;;;5082040;28;20186;-78
2022/03/14 12:04:37;;;;;;;5.90;5.50;;;13.70;99.90;;;;;;5077764;28;20183;-78
2022/03/14 12:07:06;;;;;;;5.90;5.40;;;13.70;99.90;;;;;;5081607;28;20210;-78
2022/03/14 12:09:51;;;;;;;6.30;5.63;;;13.70;99.90;;;;;;5060256;28;20198;-79
2022/03/14 12:12:35;;;;;;;6.10;5.57;;;13.80;99.90;;;;;;5078194;28;20194;-78
2022/03/14 12:15:04;;;;;;;5.50;5.20;;;13.80;99.90;;;;;;5089004;28;20209;-79
2022/03/14 12:17:33;;;;;;;5.93;5.40;;;13.80;99.90;;;;;;5063965;28;20226;-78
2022/03/14 12:20:03;;;;;;;6.67;5.37;;;13.80;99.90;;;;;;5079031;28;20227;-78
2022/03/14 12:22:43;;;;;;;5.67;5.30;;;13.90;99.90;;;;;;5070299;28;20201;-78
2022/03/14 12:25:12;;;;;;;5.80;5.40;;;13.90;99.90;;;;;;5086353;28;20194;-78
2022/03/14 12:27:41;;;;;;;6.00;5.50;;;13.80;99.90;;;;;;5076408;28;20214;-79
2022/03/14 12:30:30;;;;;;;7.17;6.43;;;13.80;99.90;;;;;;5087497;28;20672;-79
2022/03/14 12:32:59;;;;;;;3.57;2.40;;;13.70;99.90;;;;;;5083147;28;20198;-78
2022/03/14 12:35:29;;;;;;;5.37;4.87;;;13.70;99.90;;;;;;5067340;28;20218;-79
2022/03/14 12:37:58;;;;;;;4.23;3.43;;;13.60;99.90;;;;;;5081131;28;20293;-78
2022/03/14 12:40:56;;;;;;;4.80;4.30;;;13.70;99.90;;;;;;5070965;28;20202;-79
2022/03/14 12:43:31;;;;;;;5.83;5.40;;;13.80;99.90;;;;;;5023973;28;20209;-78
2022/03/14 12:45:59;;;;;;;6.03;5.47;;;13.80;99.90;;;;;;5066961;28;20195;-77
2022/03/14 12:48:27;;;;;;;5.90;5.40;;;13.80;99.90;;;;;;5084734;28;20186;-79
2022/03/14 12:51:02;;;;;;;2.07;1.70;;;13.80;99.90;;;;;;5080407;28;20210;-77
2022/03/14 12:53:52;;;;;;;1.77;1.60;;;13.90;99.90;;;;;;5074471;28;20194;-78